Time;durP1;ratioP1;P1;durP2;ratioP2;P2;SDS_P1;SDS_P2;PMS_P1;PMS_P2;Temp;Humidity;BMP_temperature;BMP_pressure;BME280_temperature;BME280_humidity;BME280_pressure;Samples;Min_cycle;Max_cycle;Signal;HPM_P1;HPM_P2
2022/03/01 00:01:52;;;;;;;18.25;11.93;;;1.30;99.90;;;;;;4919162;29;20047;-81
2022/03/01 00:04:19;;;;;;;24.58;12.15;;;2.50;99.90;;;;;;4934053;29;20054;-81
2022/03/01 00:06:45;;;;;;;17.52;12.45;;;1.20;99.90;;;;;;4918851;29;20055;-81
2022/03/01 00:09:10;;;;;;;20.90;12.75;;;1.20;99.90;;;;;;4934566;29;20051;-81
2022/03/01 00:11:39;;;;;;;18.90;11.57;;;1.20;99.90;;;;;;4933604;29;20039;-81
2022/03/01 00:14:06;;;;;;;18.42;12.45;;;1.20;99.90;;;;;;4934008;29;20190;-81
2022/03/01 00:16:33;;;;;;;19.23;11.88;;;1.10;99.90;;;;;;4918630;29;20047;-81
2022/03/01 00:18:59;;;;;;;20.92;12.48;;;1.10;99.90;;;;;;4917836;29;20035;-81
2022/03/01 00:21:26;;;;;;;17.73;11.73;;;1.00;99.90;;;;;;4926901;28;20055;-81
2022/03/01 00:23:52;;;;;;;17.83;11.25;;;1.00;99.90;;;;;;4937015;28;20565;-81
2022/03/01 00:26:18;;;;;;;17.70;11.90;;;1.00;99.90;;;;;;4936802;28;20133;-82
2022/03/01 00:28:44;;;;;;;23.63;12.63;;;1.00;99.90;;;;;;4936790;28;20047;-81
2022/03/01 00:31:09;;;;;;;20.02;11.98;;;0.90;99.90;;;;;;4936573;28;20054;-80
2022/03/01 00:33:35;;;;;;;19.10;11.85;;;0.90;99.90;;;;;;4937611;28;20122;-81
2022/03/01 00:36:01;;;;;;;20.48;12.52;;;1.00;99.90;;;;;;4952662;28;20050;-81
2022/03/01 00:38:27;;;;;;;19.00;11.20;;;1.00;99.90;;;;;;4934906;28;20043;-81
2022/03/01 00:40:53;;;;;;;19.20;12.98;;;1.00;99.90;;;;;;4932929;29;20418;-81
2022/03/01 00:43:21;;;;;;;18.77;12.38;;;0.90;99.90;;;;;;4918466;29;20045;-81
2022/03/01 00:45:47;;;;;;;21.05;12.80;;;0.90;99.90;;;;;;4932772;29;20051;-81
2022/03/01 00:48:12;;;;;;;19.70;12.23;;;0.90;99.90;;;;;;4917546;29;20043;-81
2022/03/01 00:50:38;;;;;;;18.80;12.57;;;0.90;99.90;;;;;;4918645;29;20051;-81
2022/03/01 00:53:04;;;;;;;21.30;13.02;;;0.90;99.90;;;;;;4932968;29;20043;-81
2022/03/01 00:55:29;;;;;;;17.42;11.82;;;0.90;99.90;;;;;;4917821;29;20046;-80
2022/03/01 00:57:55;;;;;;;18.83;12.93;;;0.90;99.90;;;;;;4918004;29;20040;-81
2022/03/01 01:00:20;;;;;;;18.42;12.63;;;0.80;99.90;;;;;;4917409;29;20502;-80
2022/03/01 01:02:48;;;;;;;18.45;11.90;;;0.80;99.90;;;;;;4934241;29;20051;-81
2022/03/01 01:05:14;;;;;;;20.42;13.13;;;0.80;99.90;;;;;;4934183;29;20039;-81
2022/03/01 01:07:40;;;;;;;20.20;12.48;;;0.70;99.90;;;;;;4917898;29;20376;-81
2022/03/01 01:10:06;;;;;;;18.73;12.50;;;0.70;99.90;;;;;;4934026;29;20066;-81
2022/03/01 01:12:33;;;;;;;20.92;12.00;;;0.70;99.90;;;;;;4917186;29;20051;-81
2022/03/01 01:14:59;;;;;;;20.90;12.88;;;0.70;99.90;;;;;;4917455;29;20062;-80
2022/03/01 01:17:24;;;;;;;24.08;13.18;;;0.70;99.90;;;;;;4917862;29;20407;-81
2022/03/01 01:19:50;;;;;;;18.60;12.50;;;0.70;99.90;;;;;;4930536;29;20055;-81
2022/03/01 01:22:41;;;;;;;27.85;11.00;;;0.60;99.90;;;;;;4928917;29;20089;-80
2022/03/01 01:25:12;;;;;;;18.73;11.25;;;0.70;99.90;;;;;;4933603;29;20058;-81
2022/03/01 01:27:40;;;;;;;19.27;12.35;;;0.70;99.90;;;;;;4932501;29;20043;-81
2022/03/01 01:30:09;;;;;;;16.73;12.50;;;0.70;99.90;;;;;;4917888;29;20047;-81
2022/03/01 01:32:35;;;;;;;20.55;12.48;;;0.70;99.90;;;;;;4918116;29;20111;-81
2022/03/01 01:35:01;;;;;;;18.20;12.00;;;0.60;99.90;;;;;;4948343;29;20499;-81
2022/03/01 01:37:26;;;;;;;22.67;12.15;;;0.60;99.90;;;;;;4933732;29;20047;-81
2022/03/01 01:39:52;;;;;;;18.48;12.52;;;0.60;99.90;;;;;;4916787;29;20047;-81
2022/03/01 01:42:18;;;;;;;21.30;12.52;;;0.50;99.90;;;;;;4916049;29;20047;-81
2022/03/01 01:44:44;;;;;;;20.88;12.10;;;0.50;99.90;;;;;;4918083;29;20079;-80
2022/03/01 01:47:10;;;;;;;20.80;12.90;;;0.50;99.90;;;;;;4917007;29;20502;-80
2022/03/01 01:49:35;;;;;;;19.52;12.75;;;0.50;99.90;;;;;;4933058;29;20047;-81
2022/03/01 01:52:01;;;;;;;22.85;13.15;;;0.40;99.90;;;;;;4932660;29;20491;-80
2022/03/01 01:54:28;;;;;;;24.38;13.18;;;0.40;99.90;;;;;;4917594;29;20055;-80
2022/03/01 01:56:53;;;;;;;18.63;12.38;;;0.30;99.90;;;;;;4931941;28;20053;-80
2022/03/01 01:59:19;;;;;;;18.73;12.18;;;0.20;99.90;;;;;;4936052;29;20055;-80
2022/03/01 02:01:45;;;;;;;19.08;12.45;;;0.20;99.90;;;;;;4937011;29;20120;-80
2022/03/01 02:04:11;;;;;;;21.50;13.15;;;0.10;99.90;;;;;;4935872;29;20036;-80
2022/03/01 02:06:48;;;;;;;18.67;12.70;;;0.10;99.90;;;;;;4937079;29;20039;-80
2022/03/01 02:09:14;;;;;;;22.05;13.52;;;0.10;99.90;;;;;;4936602;29;20830;-80
2022/03/01 02:11:39;;;;;;;20.05;12.75;;;0.00;99.90;;;;;;4935769;29;20183;-80
2022/03/01 02:14:05;;;;;;;18.70;12.07;;;0.00;99.90;;;;;;4935770;29;20119;-81
2022/03/01 02:16:31;;;;;;;18.85;12.23;;;0.00;99.90;;;;;;4920092;29;20039;-81
2022/03/01 02:18:57;;;;;;;17.77;11.95;;;-0.10;99.90;;;;;;4936200;29;20039;-80
2022/03/01 02:21:23;;;;;;;20.63;12.63;;;-0.10;99.90;;;;;;4935959;29;20495;-80
2022/03/01 02:23:49;;;;;;;22.67;12.80;;;0.00;99.90;;;;;;4935515;29;20047;-80
2022/03/01 02:26:14;;;;;;;21.02;12.05;;;0.00;99.90;;;;;;4920079;29;20058;-80
2022/03/01 02:28:40;;;;;;;19.25;13.13;;;0.00;99.90;;;;;;4935970;29;20057;-80
2022/03/01 02:31:08;;;;;;;21.35;12.60;;;0.00;99.90;;;;;;4936092;29;20446;-81
2022/03/01 02:33:34;;;;;;;21.90;12.55;;;-0.10;99.90;;;;;;4936264;29;20047;-81
2022/03/01 02:35:59;;;;;;;20.20;12.48;;;0.00;99.90;;;;;;4920311;29;20047;-80
2022/03/01 02:38:25;;;;;;;20.67;13.10;;;-0.10;99.90;;;;;;4937006;28;20411;-80
2022/03/01 02:40:50;;;;;;;18.65;12.40;;;0.00;99.90;;;;;;4954662;28;20053;-81
2022/03/01 02:43:16;;;;;;;21.52;13.38;;;0.00;99.90;;;;;;4955565;28;20140;-81
2022/03/01 02:45:42;;;;;;;24.17;13.60;;;0.00;99.90;;;;;;4954544;28;20043;-80
2022/03/01 02:48:08;;;;;;;22.20;13.65;;;0.00;99.90;;;;;;4954948;28;20130;-80
2022/03/01 02:50:33;;;;;;;19.38;12.55;;;0.00;99.90;;;;;;4955061;28;20051;-81
2022/03/01 02:52:59;;;;;;;22.08;14.05;;;-0.10;99.90;;;;;;4954139;28;20483;-80
2022/03/01 02:55:25;;;;;;;23.23;13.60;;;-0.10;99.90;;;;;;4955205;28;20133;-81
2022/03/01 02:57:50;;;;;;;20.85;13.90;;;-0.10;99.90;;;;;;4954040;28;20059;-81
2022/03/01 03:00:16;;;;;;;19.45;11.63;;;-0.10;99.90;;;;;;4938409;28;20046;-81
2022/03/01 03:02:42;;;;;;;22.05;13.65;;;-0.20;99.90;;;;;;4954409;28;20043;-80
2022/03/01 03:05:09;;;;;;;22.70;13.43;;;-0.20;99.90;;;;;;4954758;28;20150;-80
2022/03/01 03:07:35;;;;;;;19.95;13.68;;;-0.20;99.90;;;;;;4954220;28;20474;-81
2022/03/01 03:10:01;;;;;;;21.10;13.13;;;-0.20;99.90;;;;;;4953473;28;20047;-81
2022/03/01 03:12:27;;;;;;;20.23;13.60;;;-0.20;99.90;;;;;;4954117;28;20051;-81
2022/03/01 03:14:53;;;;;;;20.48;13.65;;;-0.20;99.90;;;;;;4953647;28;20142;-81
2022/03/01 03:17:19;;;;;;;21.45;13.55;;;-0.20;99.90;;;;;;4954627;28;20130;-81
2022/03/01 03:19:44;;;;;;;21.17;13.30;;;-0.10;99.90;;;;;;4947750;28;20072;-80
2022/03/01 03:22:10;;;;;;;23.50;14.20;;;-0.10;99.90;;;;;;4953684;28;20109;-81
2022/03/01 03:24:35;;;;;;;21.65;14.15;;;-0.10;99.90;;;;;;4954732;28;20519;-81
2022/03/01 03:27:01;;;;;;;19.52;13.50;;;-0.10;99.90;;;;;;4952238;28;20051;-80
2022/03/01 03:29:27;;;;;;;19.73;12.98;;;-0.10;99.90;;;;;;4954569;28;20117;-81
2022/03/01 03:31:57;;;;;;;21.58;12.85;;;0.00;99.90;;;;;;4938282;28;20138;-80
2022/03/01 03:34:23;;;;;;;24.55;14.75;;;0.00;99.90;;;;;;4954098;28;20470;-81
2022/03/01 03:36:48;;;;;;;19.85;12.93;;;0.00;99.90;;;;;;4938408;28;20043;-80
2022/03/01 03:39:14;;;;;;;21.95;14.23;;;0.00;99.90;;;;;;4953560;28;20517;-81
2022/03/01 03:41:40;;;;;;;20.95;13.98;;;0.10;99.90;;;;;;4937457;28;20082;-80
2022/03/01 03:44:06;;;;;;;21.48;13.38;;;0.10;99.90;;;;;;4937539;28;20055;-81
2022/03/01 03:46:31;;;;;;;24.65;13.30;;;0.10;99.90;;;;;;4953974;28;20043;-80
2022/03/01 03:48:57;;;;;;;20.92;13.85;;;0.20;99.90;;;;;;4953054;28;20047;-80
2022/03/01 03:51:23;;;;;;;22.17;14.40;;;0.20;99.90;;;;;;4937834;28;20054;-80
2022/03/01 03:53:49;;;;;;;21.77;14.02;;;0.20;99.90;;;;;;4937799;28;20410;-81
2022/03/01 03:56:14;;;;;;;24.08;14.55;;;0.30;99.90;;;;;;4936842;28;20054;-83
2022/03/01 03:58:40;;;;;;;24.95;14.32;;;0.30;99.90;;;;;;4953619;28;20046;-81
2022/03/01 04:01:06;;;;;;;22.10;14.35;;;0.30;99.90;;;;;;4953795;28;20062;-81
2022/03/01 04:03:32;;;;;;;26.77;14.07;;;0.30;99.90;;;;;;4952796;28;20065;-80
2022/03/01 04:05:58;;;;;;;22.75;14.18;;;0.30;99.90;;;;;;4937899;28;20082;-80
2022/03/01 04:08:24;;;;;;;23.52;15.32;;;0.40;99.90;;;;;;4938113;28;20054;-80
2022/03/01 04:10:49;;;;;;;21.70;13.63;;;0.40;99.90;;;;;;4936549;28;20109;-81
2022/03/01 04:13:15;;;;;;;21.40;14.05;;;0.40;99.90;;;;;;4937517;28;20479;-80
2022/03/01 04:15:41;;;;;;;20.30;13.82;;;0.40;99.90;;;;;;4953168;28;20482;-80
2022/03/01 04:18:06;;;;;;;19.75;13.93;;;0.40;99.90;;;;;;4936666;28;20043;-80
2022/03/01 04:20:33;;;;;;;20.98;13.40;;;0.40;99.90;;;;;;4951795;28;20047;-80
2022/03/01 04:22:59;;;;;;;21.27;13.98;;;0.40;99.90;;;;;;4936676;28;20577;-81
2022/03/01 04:25:25;;;;;;;22.15;13.90;;;0.40;99.90;;;;;;4937455;28;20129;-81
2022/03/01 04:27:51;;;;;;;23.08;14.80;;;0.40;99.90;;;;;;4936516;28;20141;-81
2022/03/01 04:30:16;;;;;;;22.52;14.60;;;0.40;99.90;;;;;;4937163;28;20380;-81
2022/03/01 04:32:43;;;;;;;24.67;14.15;;;0.40;99.90;;;;;;4952825;28;20152;-81
2022/03/01 04:35:09;;;;;;;22.08;14.30;;;0.40;99.90;;;;;;4937090;28;20580;-81
2022/03/01 04:37:37;;;;;;;24.08;14.07;;;0.40;99.90;;;;;;4936848;28;20092;-81
2022/03/01 04:40:05;;;;;;;23.52;14.85;;;0.40;99.90;;;;;;4937984;29;20126;-81
2022/03/01 04:42:31;;;;;;;23.00;13.40;;;0.50;99.90;;;;;;4917724;29;20051;-81
2022/03/01 04:44:57;;;;;;;26.67;14.13;;;0.50;99.90;;;;;;4917259;29;20070;-81
2022/03/01 04:47:26;;;;;;;22.20;14.43;;;1.10;99.90;;;;;;4918555;29;20046;-81
2022/03/01 04:49:51;;;;;;;23.60;14.38;;;0.50;99.90;;;;;;4917850;29;20039;-81
2022/03/01 04:52:17;;;;;;;22.35;15.18;;;0.50;99.90;;;;;;4917669;29;20398;-81
2022/03/01 04:54:43;;;;;;;23.45;14.80;;;0.50;99.90;;;;;;4918418;29;20087;-81
2022/03/01 04:57:09;;;;;;;24.45;14.90;;;0.60;99.90;;;;;;4916879;29;20055;-81
2022/03/01 04:59:41;;;;;;;24.85;13.93;;;0.60;99.90;;;;;;4949414;29;20035;-81
2022/03/01 05:02:07;;;;;;;22.17;14.27;;;0.60;99.90;;;;;;4917584;29;20499;-81
2022/03/01 05:04:33;;;;;;;22.00;14.88;;;0.50;99.90;;;;;;4933944;29;20051;-81
2022/03/01 05:06:58;;;;;;;22.95;14.30;;;0.60;99.90;;;;;;4932577;29;20039;-81
2022/03/01 05:09:24;;;;;;;21.67;14.25;;;0.50;99.90;;;;;;4918268;29;20047;-81
2022/03/01 05:11:50;;;;;;;22.10;14.60;;;0.50;99.90;;;;;;4917717;29;20047;-81
2022/03/01 05:14:17;;;;;;;27.52;14.75;;;0.60;99.90;;;;;;4916739;29;20043;-81
2022/03/01 05:16:43;;;;;;;22.05;13.90;;;0.60;99.90;;;;;;4933943;29;20051;-81
2022/03/01 05:19:09;;;;;;;23.10;13.50;;;0.60;99.90;;;;;;4933024;29;20046;-80
2022/03/01 05:21:35;;;;;;;23.92;14.73;;;0.60;99.90;;;;;;4924554;28;20043;-81
2022/03/01 05:24:02;;;;;;;21.13;14.20;;;0.60;99.90;;;;;;4936778;28;20090;-81
2022/03/01 05:26:28;;;;;;;19.98;13.48;;;0.70;99.90;;;;;;4951612;28;20097;-81
2022/03/01 05:28:54;;;;;;;21.30;13.32;;;0.70;99.90;;;;;;4936111;28;20047;-81
2022/03/01 05:31:20;;;;;;;23.73;14.23;;;0.70;99.90;;;;;;4936759;28;20047;-81
2022/03/01 05:33:46;;;;;;;20.75;14.27;;;0.80;99.90;;;;;;4939180;28;20039;-81
2022/03/01 05:36:13;;;;;;;24.33;14.15;;;0.80;99.90;;;;;;4940334;28;20050;-81
2022/03/01 05:38:39;;;;;;;22.27;13.18;;;0.80;99.90;;;;;;4940650;28;20042;-81
2022/03/01 05:41:04;;;;;;;21.55;13.63;;;0.90;99.90;;;;;;4955779;28;20061;-80
2022/03/01 05:43:31;;;;;;;20.35;13.65;;;0.90;99.90;;;;;;4940244;28;20054;-81
2022/03/01 05:45:57;;;;;;;22.60;14.10;;;0.90;99.90;;;;;;4956283;28;20046;-81
2022/03/01 05:48:22;;;;;;;19.25;12.80;;;0.90;99.90;;;;;;4939238;28;20051;-81
2022/03/01 05:50:48;;;;;;;21.45;13.98;;;0.90;99.90;;;;;;4938298;29;20071;-81
2022/03/01 05:53:17;;;;;;;19.98;12.90;;;0.90;99.90;;;;;;4918162;29;20056;-81
2022/03/01 05:55:42;;;;;;;20.33;13.27;;;0.90;99.90;;;;;;4916737;29;20043;-80
2022/03/01 05:58:08;;;;;;;24.95;14.35;;;0.90;99.90;;;;;;4917640;29;20051;-81
2022/03/01 06:00:34;;;;;;;21.67;12.98;;;0.90;99.90;;;;;;4917755;29;20424;-81
2022/03/01 06:02:59;;;;;;;20.73;14.30;;;0.90;99.90;;;;;;4917298;29;20054;-81
2022/03/01 06:05:26;;;;;;;19.77;13.73;;;0.90;99.90;;;;;;4918254;29;20043;-81
2022/03/01 06:07:52;;;;;;;23.77;14.35;;;0.90;99.90;;;;;;4901789;29;20059;-81
2022/03/01 06:10:18;;;;;;;22.70;13.93;;;0.90;99.90;;;;;;4917200;29;20052;-81
2022/03/01 06:12:43;;;;;;;21.42;14.15;;;1.00;99.90;;;;;;4916500;29;20051;-81
2022/03/01 06:15:10;;;;;;;19.35;13.25;;;0.90;99.90;;;;;;4917464;29;20058;-81
2022/03/01 06:17:36;;;;;;;23.70;13.43;;;1.00;99.90;;;;;;4916929;29;20055;-81
2022/03/01 06:20:02;;;;;;;19.83;13.43;;;0.90;99.90;;;;;;4901560;29;20043;-81
2022/03/01 06:22:29;;;;;;;22.15;14.25;;;0.90;99.90;;;;;;4916015;29;20497;-81
2022/03/01 06:24:55;;;;;;;22.10;13.65;;;0.90;99.90;;;;;;4951548;29;20099;-81
2022/03/01 06:27:22;;;;;;;20.85;13.88;;;0.90;99.90;;;;;;4939021;28;20042;-81
2022/03/01 06:29:48;;;;;;;22.40;14.45;;;1.00;99.90;;;;;;4938951;28;20042;-81
2022/03/01 06:32:14;;;;;;;21.13;14.57;;;0.90;99.90;;;;;;4955908;28;20446;-80
2022/03/01 06:34:39;;;;;;;23.77;14.15;;;0.90;99.90;;;;;;4955486;28;20633;-82
2022/03/01 06:37:18;;;;;;;21.80;14.48;;;1.00;99.90;;;;;;4970026;28;20038;-82
2022/03/01 06:39:49;;;;;;;28.92;14.50;;;1.10;99.90;;;;;;4954731;28;20042;-82
2022/03/01 06:42:15;;;;;;;23.73;13.65;;;1.10;99.90;;;;;;4954428;28;20172;-82
2022/03/01 06:44:41;;;;;;;22.85;14.05;;;1.10;99.90;;;;;;4953816;28;20122;-82
2022/03/01 06:47:06;;;;;;;24.38;14.82;;;1.10;99.90;;;;;;4954465;28;20057;-82
2022/03/01 06:49:32;;;;;;;25.50;14.50;;;1.20;99.90;;;;;;4939598;28;20121;-82
2022/03/01 06:51:59;;;;;;;21.75;13.55;;;1.20;99.90;;;;;;4954026;28;20053;-81
2022/03/01 06:54:25;;;;;;;22.05;14.23;;;1.20;99.90;;;;;;4932084;29;20051;-82
2022/03/01 06:56:50;;;;;;;31.00;15.70;;;1.20;99.90;;;;;;4916949;29;20058;-82
2022/03/01 06:59:26;;;;;;;21.80;14.60;;;1.30;99.90;;;;;;4931300;29;20039;-82
2022/03/01 07:01:53;;;;;;;26.00;15.38;;;1.30;99.90;;;;;;4916847;29;20039;-80
2022/03/01 07:04:18;;;;;;;26.70;14.98;;;1.30;99.90;;;;;;4949257;29;20158;-82
2022/03/01 07:06:56;;;;;;;23.13;15.40;;;1.30;99.90;;;;;;4948426;29;20134;-82
2022/03/01 07:09:22;;;;;;;21.48;15.13;;;1.40;99.90;;;;;;4966533;28;20042;-82
2022/03/01 07:11:57;;;;;;;27.05;15.20;;;2.60;99.90;;;;;;4938726;28;20435;-82
2022/03/01 07:14:23;;;;;;;28.85;15.95;;;1.50;99.90;;;;;;4954137;28;20455;-82
2022/03/01 07:16:51;;;;;;;24.15;15.23;;;1.50;99.90;;;;;;4938754;28;20142;-81
2022/03/01 07:19:16;;;;;;;28.55;15.65;;;1.50;99.90;;;;;;4935111;29;20380;-82
2022/03/01 07:21:54;;;;;;;25.23;15.45;;;2.00;99.90;;;;;;4943612;28;20059;-81
2022/03/01 07:24:20;;;;;;;23.73;14.50;;;1.60;99.90;;;;;;4954568;28;20051;-81
2022/03/01 07:26:45;;;;;;;23.65;15.63;;;1.70;99.90;;;;;;4954847;28;20031;-80
2022/03/01 07:29:11;;;;;;;28.17;15.70;;;1.80;99.90;;;;;;4943176;29;20047;-82
2022/03/01 07:31:40;;;;;;;27.08;15.10;;;1.90;99.90;;;;;;4942801;28;20046;-82
2022/03/01 07:34:06;;;;;;;21.58;14.23;;;1.90;99.90;;;;;;4936201;28;20051;-80
2022/03/01 07:36:38;;;;;;;22.30;14.52;;;2.00;99.90;;;;;;4951648;28;20050;-81
2022/03/01 07:39:04;;;;;;;24.15;15.00;;;2.00;99.90;;;;;;4960214;28;20470;-81
2022/03/01 07:41:39;;;;;;;24.90;15.48;;;2.10;99.90;;;;;;4966044;28;20049;-81
2022/03/01 07:44:04;;;;;;;22.88;14.65;;;3.00;99.90;;;;;;4953629;28;20125;-81
2022/03/01 07:46:30;;;;;;;22.63;16.10;;;2.80;99.90;;;;;;4954389;28;20490;-81
2022/03/01 07:48:56;;;;;;;23.83;15.70;;;2.10;99.90;;;;;;4953113;28;20072;-76
2022/03/01 07:51:21;;;;;;;25.25;15.60;;;2.20;99.90;;;;;;4964207;28;20054;-81
2022/03/01 07:53:47;;;;;;;24.88;15.40;;;2.20;99.90;;;;;;4938047;28;20463;-82
2022/03/01 07:56:14;;;;;;;25.95;15.55;;;2.70;99.90;;;;;;4925492;28;20083;-82
2022/03/01 07:58:43;;;;;;;30.42;15.68;;;2.60;99.90;;;;;;4940234;28;20047;-82
2022/03/01 08:01:08;;;;;;;27.20;14.82;;;3.30;99.90;;;;;;4953060;28;20438;-82
2022/03/01 08:03:35;;;;;;;26.80;15.60;;;2.40;99.90;;;;;;4953594;28;20430;-82
2022/03/01 08:06:01;;;;;;;26.50;15.80;;;3.50;99.90;;;;;;4953318;28;20053;-82
2022/03/01 08:08:27;;;;;;;23.92;15.38;;;2.50;99.90;;;;;;4936873;28;20043;-83
2022/03/01 08:10:53;;;;;;;23.48;14.90;;;2.50;99.90;;;;;;4936962;28;20038;-83
2022/03/01 08:13:21;;;;;;;23.35;15.00;;;2.50;99.90;;;;;;4953423;28;20092;-82
2022/03/01 08:15:47;;;;;;;28.95;15.23;;;3.20;99.90;;;;;;4937302;28;20050;-83
2022/03/01 08:18:12;;;;;;;32.05;15.73;;;2.70;99.90;;;;;;4953877;28;20054;-82
2022/03/01 08:20:38;;;;;;;24.50;15.25;;;2.70;99.90;;;;;;4937989;28;20569;-81
2022/03/01 08:23:06;;;;;;;26.25;16.35;;;2.90;99.90;;;;;;4952896;28;20691;-82
2022/03/01 08:25:32;;;;;;;30.52;15.45;;;3.10;99.90;;;;;;4953262;28;20051;-81
2022/03/01 08:27:59;;;;;;;24.67;14.88;;;2.90;99.90;;;;;;4953271;28;20141;-82
2022/03/01 08:30:25;;;;;;;23.20;14.40;;;2.90;99.90;;;;;;4953058;28;20082;-82
2022/03/01 08:32:50;;;;;;;27.40;15.93;;;3.00;99.90;;;;;;4953109;28;20141;-82
2022/03/01 08:35:16;;;;;;;20.05;14.25;;;3.00;99.90;;;;;;4953548;28;20410;-82
2022/03/01 08:37:42;;;;;;;76.53;30.63;;;3.10;99.90;;;;;;4952096;28;20494;-82
2022/03/01 08:40:08;;;;;;;35.17;19.55;;;3.10;99.90;;;;;;4950272;29;20140;-81
2022/03/01 08:42:34;;;;;;;116.72;46.60;;;3.20;99.90;;;;;;4917583;29;20561;-81
2022/03/01 08:44:59;;;;;;;28.15;15.32;;;3.20;99.90;;;;;;4949094;29;20126;-81
2022/03/01 08:47:26;;;;;;;22.38;13.85;;;3.30;99.90;;;;;;4918533;29;20051;-81
2022/03/01 08:49:53;;;;;;;21.90;15.15;;;3.40;99.90;;;;;;4934170;29;20142;-82
2022/03/01 08:52:19;;;;;;;21.95;15.88;;;3.50;99.90;;;;;;4917831;29;20039;-81
2022/03/01 08:54:45;;;;;;;24.63;15.70;;;3.90;99.90;;;;;;4934002;29;20063;-81
2022/03/01 08:57:11;;;;;;;21.17;15.27;;;3.70;99.90;;;;;;4933206;29;20162;-81
2022/03/01 08:59:37;;;;;;;21.90;15.02;;;3.80;99.90;;;;;;4932748;29;20082;-81
2022/03/01 09:02:04;;;;;;;22.98;15.15;;;3.90;99.90;;;;;;4933825;29;20054;-82
2022/03/01 09:04:32;;;;;;;25.65;15.90;;;4.10;99.90;;;;;;4925847;28;20043;-82
2022/03/01 09:06:58;;;;;;;21.60;14.68;;;4.20;99.90;;;;;;4934431;28;20039;-82
2022/03/01 09:09:24;;;;;;;22.10;14.32;;;4.20;99.90;;;;;;4922945;29;20164;-82
2022/03/01 09:11:50;;;;;;;26.05;14.85;;;4.40;99.90;;;;;;4916849;29;20090;-81
2022/03/01 09:14:15;;;;;;;21.85;14.60;;;4.50;99.90;;;;;;4917574;29;20176;-81
2022/03/01 09:16:44;;;;;;;22.33;13.80;;;4.60;99.90;;;;;;4919158;28;20043;-82
2022/03/01 09:19:10;;;;;;;21.10;14.55;;;4.70;99.90;;;;;;4934490;28;20505;-79
2022/03/01 09:21:48;;;;;;;19.33;14.05;;;6.20;99.90;;;;;;4936871;28;20129;-82
2022/03/01 09:24:13;;;;;;;25.50;13.73;;;5.20;99.90;;;;;;4969096;28;20039;-82
2022/03/01 09:26:39;;;;;;;22.40;13.75;;;5.10;99.90;;;;;;4952014;28;20054;-82
2022/03/01 09:29:05;;;;;;;19.95;13.63;;;5.20;99.90;;;;;;4952181;28;20042;-83
2022/03/01 09:31:31;;;;;;;22.40;14.45;;;5.30;99.90;;;;;;4936793;28;20135;-81
2022/03/01 09:33:57;;;;;;;22.48;14.15;;;5.30;99.90;;;;;;4951172;28;20043;-82
2022/03/01 09:36:23;;;;;;;19.30;13.05;;;5.70;99.90;;;;;;4952552;28;20078;-83
2022/03/01 09:38:52;;;;;;;21.13;13.45;;;5.40;99.90;;;;;;4936516;28;20519;-83
2022/03/01 09:41:17;;;;;;;18.90;13.05;;;5.50;99.90;;;;;;4951646;28;20055;-82
2022/03/01 09:43:43;;;;;;;22.45;14.23;;;5.50;99.90;;;;;;4936350;28;20046;-82
2022/03/01 09:46:09;;;;;;;21.05;14.23;;;5.60;99.90;;;;;;4936079;28;20497;-82
2022/03/01 09:48:38;;;;;;;25.33;14.63;;;5.60;99.90;;;;;;4936246;28;20050;-82
2022/03/01 09:51:06;;;;;;;22.83;14.65;;;5.60;99.90;;;;;;4932656;29;20043;-82
2022/03/01 09:53:32;;;;;;;22.30;12.95;;;5.60;99.90;;;;;;4933725;29;20055;-83
2022/03/01 09:56:02;;;;;;;22.00;13.95;;;5.60;99.90;;;;;;4931895;29;20411;-81
2022/03/01 09:58:28;;;;;;;25.85;14.35;;;6.70;99.90;;;;;;4932867;29;20051;-81
2022/03/01 10:00:54;;;;;;;21.10;13.73;;;5.60;99.90;;;;;;4948392;29;20046;-81
2022/03/01 10:03:20;;;;;;;21.98;13.38;;;5.70;99.90;;;;;;4949369;29;20093;-81
2022/03/01 10:05:46;;;;;;;19.23;12.55;;;5.70;99.90;;;;;;4933860;29;20163;-81
2022/03/01 10:08:22;;;;;;;20.95;12.20;;;5.80;99.90;;;;;;4932284;29;20137;-82
2022/03/01 10:10:51;;;;;;;18.40;13.05;;;5.80;99.90;;;;;;4949439;29;20043;-81
2022/03/01 10:13:25;;;;;;;20.77;13.80;;;6.80;99.90;;;;;;4949295;29;20055;-82
2022/03/01 10:16:02;;;;;;;22.15;14.32;;;6.00;99.90;;;;;;4916599;29;20074;-81
2022/03/01 10:18:31;;;;;;;21.00;14.38;;;6.10;99.90;;;;;;4918783;29;20047;-81
2022/03/01 10:21:03;;;;;;;21.02;14.77;;;6.20;99.90;;;;;;4939152;28;20042;-83
2022/03/01 10:23:28;;;;;;;22.35;14.70;;;6.30;99.90;;;;;;4953095;28;20075;-82
2022/03/01 10:25:54;;;;;;;22.38;14.65;;;6.30;99.90;;;;;;4938666;28;20034;-82
2022/03/01 10:28:33;;;;;;;21.60;14.30;;;6.50;99.90;;;;;;4930864;28;20105;-82
2022/03/01 10:31:10;;;;;;;19.65;12.80;;;6.50;99.90;;;;;;4930089;28;20038;-81
2022/03/01 10:33:37;;;;;;;21.48;14.75;;;6.60;99.90;;;;;;4970616;28;20122;-82
2022/03/01 10:36:03;;;;;;;20.45;12.68;;;6.90;99.90;;;;;;4954397;28;20046;-82
2022/03/01 10:38:29;;;;;;;21.52;13.15;;;7.00;99.90;;;;;;4955341;28;20049;-82
2022/03/01 10:40:58;;;;;;;19.83;13.30;;;7.20;99.90;;;;;;4938816;28;20078;-82
2022/03/01 10:43:25;;;;;;;20.17;13.10;;;7.40;99.90;;;;;;4954304;28;20386;-82
2022/03/01 10:45:51;;;;;;;20.13;12.45;;;7.60;99.90;;;;;;4939337;28;20132;-81
2022/03/01 10:48:34;;;;;;;17.33;12.43;;;7.70;99.90;;;;;;4939210;28;20561;-82
2022/03/01 10:51:04;;;;;;;20.55;13.05;;;7.80;99.90;;;;;;4938046;28;20047;-82
2022/03/01 10:53:33;;;;;;;22.73;13.45;;;8.00;99.90;;;;;;4939275;28;20053;-82
2022/03/01 10:56:02;;;;;;;19.10;13.55;;;8.10;99.90;;;;;;4954303;28;20039;-81
2022/03/01 10:58:28;;;;;;;21.23;13.55;;;8.30;99.90;;;;;;4937869;28;20046;-82
2022/03/01 11:00:54;;;;;;;20.00;12.90;;;8.30;99.90;;;;;;4953955;28;20057;-82
2022/03/01 11:03:19;;;;;;;19.30;12.48;;;8.20;99.90;;;;;;4955233;28;20479;-82
2022/03/01 11:05:45;;;;;;;24.77;13.73;;;8.30;99.90;;;;;;4938142;28;20050;-82
2022/03/01 11:08:13;;;;;;;20.35;13.88;;;8.50;99.90;;;;;;4938602;28;20078;-81
2022/03/01 11:10:40;;;;;;;20.52;13.50;;;8.90;99.90;;;;;;4934763;29;20050;-83
2022/03/01 11:13:10;;;;;;;21.58;13.95;;;8.10;99.90;;;;;;4934396;29;20368;-83
2022/03/01 11:16:15;;;;;;;18.58;13.25;;;8.00;99.90;;;;;;4935436;29;20062;-83
2022/03/01 11:18:50;;;;;;;20.27;12.70;;;7.90;99.90;;;;;;4936022;28;20083;-82
2022/03/01 11:21:19;;;;;;;18.05;12.88;;;8.30;99.90;;;;;;4954533;28;20054;-82
2022/03/01 11:23:45;;;;;;;18.27;12.90;;;7.90;99.90;;;;;;4954406;28;20047;-82
2022/03/01 11:26:14;;;;;;;24.25;14.90;;;8.10;99.90;;;;;;4953124;28;20430;-82
2022/03/01 11:28:49;;;;;;;18.98;13.57;;;7.80;99.90;;;;;;4954170;28;20133;-82
2022/03/01 11:31:22;;;;;;;25.27;15.15;;;7.70;99.90;;;;;;4953419;28;20054;-81
2022/03/01 11:33:58;;;;;;;19.90;13.90;;;7.70;99.90;;;;;;4953704;28;20042;-82
2022/03/01 11:36:31;;;;;;;22.83;13.82;;;7.70;99.90;;;;;;4953849;28;20054;-82
2022/03/01 11:39:11;;;;;;;21.83;14.23;;;7.70;99.90;;;;;;4954345;28;20062;-82
2022/03/01 11:41:42;;;;;;;20.42;14.27;;;7.70;99.90;;;;;;4954378;28;20398;-82
2022/03/01 11:44:08;;;;;;;19.75;13.75;;;7.70;99.90;;;;;;4953312;28;20495;-82
2022/03/01 11:46:42;;;;;;;20.27;14.07;;;7.80;99.90;;;;;;4953788;28;20500;-83
2022/03/01 11:49:10;;;;;;;26.98;14.38;;;7.80;99.90;;;;;;4953542;28;20823;-81
2022/03/01 11:51:40;;;;;;;19.88;13.90;;;7.80;99.90;;;;;;4954469;28;20050;-82
2022/03/01 11:54:09;;;;;;;21.60;13.60;;;7.90;99.90;;;;;;4952843;28;20402;-81
2022/03/01 11:56:37;;;;;;;28.20;14.07;;;8.30;99.90;;;;;;4937779;28;20058;-82
2022/03/01 11:59:06;;;;;;;25.73;15.02;;;8.40;99.90;;;;;;4953398;28;20042;-83
2022/03/01 12:01:33;;;;;;;21.52;13.65;;;8.10;99.90;;;;;;4954062;28;20039;-83
2022/03/01 12:04:02;;;;;;;25.40;14.52;;;8.10;99.90;;;;;;4953601;28;20491;-82
2022/03/01 12:06:29;;;;;;;22.23;13.77;;;8.00;99.90;;;;;;4954025;28;20406;-81
2022/03/01 12:09:04;;;;;;;20.92;14.43;;;8.50;99.90;;;;;;4952110;28;20046;-81
2022/03/01 12:11:34;;;;;;;21.25;13.90;;;7.90;99.90;;;;;;4953488;28;20050;-81
2022/03/01 12:14:03;;;;;;;19.25;13.55;;;7.80;99.90;;;;;;4969375;28;20406;-81
2022/03/01 12:16:32;;;;;;;19.85;13.68;;;7.80;99.90;;;;;;4952523;28;20083;-81
2022/03/01 12:19:09;;;;;;;22.50;14.25;;;7.80;99.90;;;;;;4953517;28;20125;-81
2022/03/01 12:21:35;;;;;;;23.70;13.60;;;7.80;99.90;;;;;;4936803;28;20094;-81
2022/03/01 12:24:01;;;;;;;23.10;14.45;;;7.80;99.90;;;;;;4969650;28;20053;-81
2022/03/01 12:26:27;;;;;;;20.23;14.23;;;7.70;99.90;;;;;;4952915;28;20489;-81
2022/03/01 12:28:57;;;;;;;25.27;14.73;;;7.70;99.90;;;;;;4936094;28;20043;-82
2022/03/01 12:31:26;;;;;;;22.40;13.93;;;7.80;99.90;;;;;;4952856;28;20038;-82
2022/03/01 12:33:57;;;;;;;22.92;13.88;;;7.60;99.90;;;;;;4953426;28;20133;-81
2022/03/01 12:36:29;;;;;;;27.75;14.15;;;7.60;99.90;;;;;;4952409;28;20050;-82